Time;durP1;ratioP1;P1;durP2;ratioP2;P2;SDS_P1;SDS_P2;PMS_P1;PMS_P2;Temp;Humidity;BMP_temperature;BMP_pressure;BME280_temperature;BME280_humidity;BME280_pressure;Samples;Min_cycle;Max_cycle;Signal;HPM_P1;HPM_P2
2023/03/17 00:00:51;;;;;;;3.67;3.33;;;4.60;99.90;;;;;;5044013;28;20217;-48
2023/03/17 00:03:24;;;;;;;5.03;3.93;;;4.70;99.90;;;;;;5044207;28;20252;-46
2023/03/17 00:05:53;;;;;;;5.90;3.43;;;4.70;99.90;;;;;;5048729;28;20567;-47
2023/03/17 00:08:22;;;;;;;4.20;3.57;;;4.70;99.90;;;;;;5047152;28;20226;-46
2023/03/17 00:10:49;;;;;;;4.83;3.80;;;4.60;99.90;;;;;;5049887;28;20203;-47
2023/03/17 00:13:17;;;;;;;3.97;3.17;;;4.70;99.90;;;;;;5050197;28;20223;-47
2023/03/17 00:15:45;;;;;;;4.73;2.53;;;4.70;99.90;;;;;;5042150;28;20201;-47
2023/03/17 00:18:16;;;;;;;3.90;3.60;;;4.70;99.90;;;;;;5048403;28;20622;-47
2023/03/17 00:20:45;;;;;;;4.77;2.87;;;4.70;99.90;;;;;;5050972;28;20201;-47
2023/03/17 00:23:15;;;;;;;4.30;2.93;;;4.80;99.90;;;;;;5051511;28;20223;-47
2023/03/17 00:25:44;;;;;;;4.13;2.27;;;4.80;99.90;;;;;;5042374;28;20205;-48
2023/03/17 00:28:17;;;;;;;2.47;2.27;;;4.80;99.90;;;;;;5052565;28;20200;-46
2023/03/17 00:30:45;;;;;;;3.40;2.70;;;4.90;99.90;;;;;;5042985;28;20205;-45
2023/03/17 00:33:12;;;;;;;5.07;2.43;;;4.90;99.90;;;;;;5051026;28;20223;-45
2023/03/17 00:35:40;;;;;;;2.50;1.73;;;4.90;99.90;;;;;;5050743;28;20207;-47
2023/03/17 00:38:15;;;;;;;2.33;1.90;;;4.90;99.90;;;;;;5043164;28;20195;-48
2023/03/17 00:40:43;;;;;;;2.67;2.43;;;4.90;99.90;;;;;;5045257;28;20208;-47
2023/03/17 00:43:10;;;;;;;3.93;1.97;;;4.90;99.90;;;;;;5049983;28;20872;-47
2023/03/17 00:45:38;;;;;;;2.50;2.30;;;4.90;99.90;;;;;;5049964;28;20257;-48
2023/03/17 00:48:13;;;;;;;3.83;2.07;;;4.90;99.90;;;;;;5050379;28;20211;-48
2023/03/17 00:50:41;;;;;;;2.73;1.70;;;4.90;99.90;;;;;;5050041;28;20215;-47
2023/03/17 00:53:13;;;;;;;2.73;2.40;;;4.90;99.90;;;;;;5050754;28;20258;-47
2023/03/17 00:55:41;;;;;;;3.97;2.50;;;4.80;99.90;;;;;;5050596;28;20211;-48
2023/03/17 00:58:13;;;;;;;4.17;2.27;;;4.80;99.90;;;;;;5051399;28;20277;-48
2023/03/17 01:00:40;;;;;;;3.67;2.03;;;4.80;99.90;;;;;;5051196;28;20779;-48
2023/03/17 01:03:11;;;;;;;8.47;3.93;;;4.80;99.90;;;;;;5044306;28;20274;-48
2023/03/17 01:05:39;;;;;;;3.50;2.07;;;4.70;99.90;;;;;;5050584;28;20662;-47
2023/03/17 01:08:06;;;;;;;3.83;2.20;;;4.70;99.90;;;;;;5051949;28;20203;-46
2023/03/17 01:10:35;;;;;;;2.67;2.27;;;4.80;99.90;;;;;;5046525;28;20251;-45
2023/03/17 01:13:03;;;;;;;4.77;2.77;;;4.80;99.90;;;;;;5049723;28;20220;-47
2023/03/17 01:15:31;;;;;;;3.57;2.20;;;4.70;99.90;;;;;;5043031;28;20200;-47
2023/03/17 01:18:00;;;;;;;3.10;2.80;;;4.70;99.90;;;;;;5039098;28;20288;-47
2023/03/17 01:20:29;;;;;;;3.63;2.90;;;4.60;99.90;;;;;;5046052;28;20247;-46
2023/03/17 01:23:00;;;;;;;3.77;2.33;;;4.60;99.90;;;;;;5046810;28;20219;-46
2023/03/17 01:25:27;;;;;;;2.70;2.50;;;4.60;99.90;;;;;;5047622;28;20201;-48
2023/03/17 01:27:58;;;;;;;3.57;1.70;;;4.60;99.90;;;;;;5055430;28;20200;-47
2023/03/17 01:30:27;;;;;;;2.47;1.63;;;4.60;99.90;;;;;;5055014;28;20199;-47
2023/03/17 01:32:57;;;;;;;2.50;1.43;;;4.60;99.90;;;;;;5045482;28;20651;-48
2023/03/17 01:35:25;;;;;;;2.70;1.73;;;4.60;99.90;;;;;;5054456;28;20693;-47
2023/03/17 01:37:56;;;;;;;0.87;0.87;;;4.70;99.90;;;;;;5055351;28;20205;-47
2023/03/17 01:40:27;;;;;;;1.97;1.43;;;4.70;99.90;;;;;;5055742;28;20214;-46
2023/03/17 01:43:04;;;;;;;0.77;0.77;;;4.70;99.90;;;;;;5054413;28;20326;-47
2023/03/17 01:46:14;;;;;;;3.03;1.30;;;4.70;99.90;;;;;;5055225;28;20261;-45
2023/03/17 01:48:44;;;;;;;2.80;1.67;;;4.60;99.90;;;;;;5052093;28;20674;-46
2023/03/17 01:51:15;;;;;;;3.67;3.00;;;4.50;99.90;;;;;;5045757;28;20581;-48
2023/03/17 01:53:46;;;;;;;3.43;2.80;;;4.60;99.90;;;;;;5051235;28;20290;-47
2023/03/17 01:56:14;;;;;;;3.23;2.63;;;4.60;99.90;;;;;;5055100;28;20205;-47
2023/03/17 01:58:43;;;;;;;5.10;2.97;;;4.70;99.90;;;;;;5055448;28;20205;-47
2023/03/17 02:01:11;;;;;;;3.23;2.70;;;4.70;99.90;;;;;;5049538;28;20201;-47
2023/03/17 02:03:38;;;;;;;3.23;2.73;;;4.80;99.90;;;;;;5051012;28;20215;-46
2023/03/17 02:06:06;;;;;;;3.70;3.50;;;4.80;99.90;;;;;;5053662;28;20745;-48
2023/03/17 02:08:33;;;;;;;2.90;2.70;;;4.80;99.90;;;;;;5051429;28;20210;-48
2023/03/17 02:11:02;;;;;;;3.60;3.03;;;4.70;99.90;;;;;;5054809;28;20196;-47
2023/03/17 02:13:29;;;;;;;4.70;3.50;;;4.70;99.90;;;;;;5053696;28;20233;-48
2023/03/17 02:15:58;;;;;;;5.30;3.33;;;4.70;99.90;;;;;;5050314;28;20732;-46
2023/03/17 02:18:25;;;;;;;5.07;4.10;;;4.60;99.90;;;;;;5045846;28;20195;-46
2023/03/17 02:21:21;;;;;;;3.73;3.33;;;4.60;99.90;;;;;;5047091;28;20210;-50
2023/03/17 02:23:50;;;;;;;4.40;3.30;;;4.60;99.90;;;;;;5045147;28;20219;-45
2023/03/17 02:26:19;;;;;;;5.20;4.10;;;4.60;99.90;;;;;;5048494;28;20253;-47
2023/03/17 02:28:47;;;;;;;2.60;2.43;;;4.60;99.90;;;;;;5054375;28;20203;-46
2023/03/17 02:31:15;;;;;;;3.30;3.00;;;4.50;99.90;;;;;;5052067;28;20232;-47
2023/03/17 02:33:42;;;;;;;3.60;3.30;;;4.70;99.90;;;;;;5051766;28;20229;-49
2023/03/17 02:36:09;;;;;;;5.47;4.10;;;4.70;99.90;;;;;;5046622;28;20200;-46
2023/03/17 02:38:36;;;;;;;4.47;4.07;;;4.70;99.90;;;;;;5052307;28;20219;-46
2023/03/17 02:41:08;;;;;;;4.80;3.37;;;4.70;99.90;;;;;;5054259;28;20270;-47
2023/03/17 02:43:36;;;;;;;3.37;3.00;;;4.70;99.90;;;;;;5045630;28;20265;-46
2023/03/17 02:46:04;;;;;;;5.43;3.80;;;4.70;99.90;;;;;;5050952;28;20257;-48
2023/03/17 02:48:32;;;;;;;3.73;3.53;;;4.70;99.90;;;;;;5054166;28;20192;-47
2023/03/17 02:50:59;;;;;;;3.33;2.83;;;4.70;99.90;;;;;;5078012;22;20238;-47
2023/03/17 02:53:25;;;;;;;4.73;3.17;;;4.70;99.90;;;;;;5072692;28;20219;-47
2023/03/17 02:55:52;;;;;;;6.30;3.27;;;4.70;99.90;;;;;;5071248;28;20206;-47
2023/03/17 02:58:21;;;;;;;4.97;3.80;;;4.80;99.90;;;;;;5072376;28;20199;-47
2023/03/17 03:00:48;;;;;;;3.90;3.53;;;4.80;99.90;;;;;;5072961;28;20221;-47
2023/03/17 03:03:15;;;;;;;8.10;5.17;;;4.80;99.90;;;;;;5071766;28;20194;-47
2023/03/17 03:05:42;;;;;;;6.87;5.60;;;4.80;99.90;;;;;;5072345;28;20210;-48
2023/03/17 03:08:09;;;;;;;13.30;7.33;;;4.90;99.90;;;;;;5071765;28;20202;-46
2023/03/17 03:10:36;;;;;;;14.87;8.60;;;4.80;99.90;;;;;;5072115;28;20246;-47
2023/03/17 03:13:03;;;;;;;20.50;9.63;;;4.90;99.90;;;;;;5069915;28;20219;-47
2023/03/17 03:15:32;;;;;;;14.77;4.60;;;4.80;99.90;;;;;;5070911;28;20281;-47
2023/03/17 03:17:59;;;;;;;4.90;3.90;;;4.80;99.90;;;;;;5072650;28;20252;-48
2023/03/17 03:20:26;;;;;;;3.93;3.63;;;4.80;99.90;;;;;;5071760;28;20250;-47
2023/03/17 03:22:53;;;;;;;3.73;3.40;;;4.80;99.90;;;;;;5064111;28;20656;-47
2023/03/17 03:25:20;;;;;;;5.33;3.70;;;4.90;99.90;;;;;;5071573;28;20260;-47
2023/03/17 03:27:47;;;;;;;6.80;4.20;;;4.90;99.90;;;;;;5070686;28;20202;-47
2023/03/17 03:30:14;;;;;;;3.83;3.50;;;4.90;99.90;;;;;;5069484;28;20191;-47
2023/03/17 03:32:42;;;;;;;3.30;3.00;;;4.80;99.90;;;;;;5069992;28;20284;-47
2023/03/17 03:35:10;;;;;;;4.33;3.33;;;4.90;99.90;;;;;;5066749;28;20652;-47
2023/03/17 03:37:37;;;;;;;4.93;3.20;;;4.90;99.90;;;;;;5068489;28;20252;-49
2023/03/17 03:40:06;;;;;;;3.27;2.93;;;4.80;99.90;;;;;;5072224;28;20622;-47
2023/03/17 03:42:33;;;;;;;3.57;3.23;;;4.70;99.90;;;;;;5070293;28;20312;-47
2023/03/17 03:45:00;;;;;;;3.47;3.17;;;4.70;99.90;;;;;;5072727;28;20214;-47
2023/03/17 03:47:27;;;;;;;4.60;3.57;;;4.70;99.90;;;;;;5071920;28;20693;-49
2023/03/17 03:49:55;;;;;;;5.97;4.37;;;4.70;99.90;;;;;;5068495;28;20203;-48
2023/03/17 03:52:22;;;;;;;5.77;3.67;;;4.70;99.90;;;;;;5066873;28;20227;-47
2023/03/17 03:54:49;;;;;;;9.73;3.63;;;4.70;99.90;;;;;;5069042;28;20626;-48
2023/03/17 03:57:16;;;;;;;5.27;4.17;;;4.70;99.90;;;;;;5071702;28;20258;-48
2023/03/17 03:59:43;;;;;;;6.77;4.17;;;4.70;99.90;;;;;;5071181;28;20201;-47
2023/03/17 04:02:10;;;;;;;4.53;3.43;;;4.70;99.90;;;;;;5070735;28;20268;-48
2023/03/17 04:04:37;;;;;;;5.07;4.30;;;4.60;99.90;;;;;;5066854;28;20281;-48
2023/03/17 04:07:06;;;;;;;4.53;4.13;;;4.60;99.90;;;;;;5068428;28;20264;-47
2023/03/17 04:09:33;;;;;;;4.87;3.60;;;4.50;99.90;;;;;;5070157;28;20244;-47
2023/03/17 04:12:00;;;;;;;5.47;3.87;;;4.50;99.90;;;;;;5069641;28;20218;-48
2023/03/17 04:14:27;;;;;;;4.27;3.70;;;4.50;99.90;;;;;;5071444;28;20731;-48
2023/03/17 04:16:55;;;;;;;4.07;3.67;;;4.50;99.90;;;;;;5068204;28;20687;-47
2023/03/17 04:19:22;;;;;;;3.57;3.37;;;4.50;99.90;;;;;;5068588;28;20305;-48
2023/03/17 04:21:49;;;;;;;3.63;3.40;;;4.50;99.90;;;;;;5068119;28;20245;-47
2023/03/17 04:24:18;;;;;;;3.37;3.17;;;4.50;99.90;;;;;;5071607;28;20218;-48
2023/03/17 04:26:45;;;;;;;4.00;3.47;;;4.50;99.90;;;;;;5067864;28;20210;-48
2023/03/17 04:29:14;;;;;;;4.97;3.67;;;4.40;99.90;;;;;;5071557;28;20202;-48
2023/03/17 04:31:41;;;;;;;3.07;2.87;;;4.30;99.90;;;;;;5070836;28;20254;-48
2023/03/17 04:34:14;;;;;;;4.67;4.13;;;4.20;99.90;;;;;;5066477;28;20279;-47
2023/03/17 04:36:43;;;;;;;4.43;4.03;;;4.30;99.90;;;;;;5067525;28;20721;-47
2023/03/17 04:39:10;;;;;;;4.00;3.60;;;4.30;99.90;;;;;;5067487;28;20198;-48
2023/03/17 04:41:38;;;;;;;4.53;4.20;;;4.20;99.90;;;;;;5066771;28;20223;-47
2023/03/17 04:44:05;;;;;;;4.80;4.00;;;4.20;99.90;;;;;;5067485;28;20256;-47
2023/03/17 04:46:33;;;;;;;4.03;3.73;;;4.20;99.90;;;;;;5067289;28;20221;-48
2023/03/17 04:49:00;;;;;;;6.60;4.73;;;4.10;99.90;;;;;;5068724;28;20199;-48
2023/03/17 04:51:27;;;;;;;5.20;4.67;;;4.10;99.90;;;;;;5070792;28;20222;-47
2023/03/17 04:53:54;;;;;;;6.90;5.33;;;4.00;99.90;;;;;;5070019;28;20260;-48
2023/03/17 04:56:21;;;;;;;5.00;4.50;;;4.00;99.90;;;;;;5069405;28;20219;-48
2023/03/17 04:58:50;;;;;;;4.27;3.87;;;4.00;99.90;;;;;;5066436;28;20253;-48
2023/03/17 05:01:17;;;;;;;4.67;3.80;;;4.10;99.90;;;;;;5068788;28;20298;-47
2023/03/17 05:03:44;;;;;;;4.20;3.90;;;4.10;99.90;;;;;;5069016;28;20217;-47
2023/03/17 05:06:11;;;;;;;4.37;4.03;;;4.10;99.90;;;;;;5068854;28;20206;-48
2023/03/17 05:08:38;;;;;;;5.03;4.63;;;4.10;99.90;;;;;;5066892;28;20277;-47
2023/03/17 05:11:05;;;;;;;4.90;4.37;;;3.90;99.90;;;;;;5068032;28;20242;-48
2023/03/17 05:13:32;;;;;;;4.47;3.97;;;3.80;99.90;;;;;;5068580;28;20201;-47
2023/03/17 05:16:01;;;;;;;6.53;3.63;;;3.90;99.90;;;;;;5066096;28;20198;-48
2023/03/17 05:18:28;;;;;;;3.67;3.40;;;3.90;99.90;;;;;;5067327;28;20199;-48
2023/03/17 05:20:55;;;;;;;6.53;4.27;;;3.90;99.90;;;;;;5069262;28;20704;-48
2023/03/17 05:23:22;;;;;;;3.97;3.70;;;3.80;99.90;;;;;;5070671;28;20219;-48
2023/03/17 05:25:50;;;;;;;5.07;4.43;;;3.80;99.90;;;;;;5070756;28;20341;-48
2023/03/17 05:28:17;;;;;;;6.23;5.63;;;3.90;99.90;;;;;;5070506;28;20198;-48
2023/03/17 05:30:44;;;;;;;6.57;4.67;;;3.90;99.90;;;;;;5070556;28;20202;-47
2023/03/17 05:33:13;;;;;;;5.17;4.70;;;3.90;99.90;;;;;;5070985;28;20253;-47
2023/03/17 05:35:40;;;;;;;5.63;4.40;;;4.00;99.90;;;;;;5069797;28;20213;-48
2023/03/17 05:38:08;;;;;;;5.20;4.33;;;3.90;99.90;;;;;;5080129;28;20260;-48
2023/03/17 05:40:35;;;;;;;5.23;4.83;;;3.80;99.90;;;;;;5090935;28;20205;-48
2023/03/17 05:43:05;;;;;;;4.90;4.40;;;3.80;99.90;;;;;;5090980;28;20206;-48
2023/03/17 05:45:33;;;;;;;5.53;4.67;;;3.80;99.90;;;;;;5090903;28;20199;-48
2023/03/17 05:48:00;;;;;;;6.63;5.23;;;3.80;99.90;;;;;;5090785;28;20205;-48
2023/03/17 05:50:28;;;;;;;7.10;4.93;;;3.80;99.90;;;;;;5078176;28;20256;-48
2023/03/17 05:52:57;;;;;;;7.17;5.03;;;3.80;99.90;;;;;;5069535;28;20252;-48
2023/03/17 05:55:25;;;;;;;5.20;4.47;;;3.80;99.90;;;;;;5070602;28;20264;-47
2023/03/17 05:57:56;;;;;;;7.03;6.43;;;3.90;99.90;;;;;;5070334;28;20255;-47
2023/03/17 06:00:23;;;;;;;5.97;4.87;;;3.90;99.90;;;;;;5069105;28;20625;-48
2023/03/17 06:02:50;;;;;;;5.97;5.33;;;3.90;99.90;;;;;;5069385;28;20310;-48
2023/03/17 06:05:17;;;;;;;5.87;4.87;;;3.90;99.90;;;;;;5070100;28;20221;-48
2023/03/17 06:07:46;;;;;;;5.47;4.67;;;3.90;99.90;;;;;;5069640;28;20206;-47
2023/03/17 06:10:13;;;;;;;6.30;5.10;;;4.00;99.90;;;;;;5051403;28;20569;-48
2023/03/17 06:12:40;;;;;;;6.50;5.80;;;4.10;99.90;;;;;;5074017;28;20318;-48
2023/03/17 06:15:08;;;;;;;7.13;5.53;;;4.10;99.90;;;;;;5073465;28;20200;-48
2023/03/17 06:17:36;;;;;;;10.10;6.13;;;4.20;99.90;;;;;;5073285;28;20199;-48
2023/03/17 06:20:04;;;;;;;9.97;9.13;;;4.20;99.90;;;;;;5074049;28;20202;-47
2023/03/17 06:22:31;;;;;;;8.27;7.47;;;4.30;99.90;;;;;;5071482;28;20223;-48
2023/03/17 06:25:00;;;;;;;8.77;7.93;;;4.40;99.90;;;;;;5064950;28;20227;-48
2023/03/17 06:27:27;;;;;;;10.90;9.80;;;4.50;99.90;;;;;;5069965;28;20610;-47
2023/03/17 06:29:54;;;;;;;9.30;8.27;;;4.50;99.90;;;;;;5073202;28;20205;-48
2023/03/17 06:32:21;;;;;;;9.60;8.17;;;4.70;99.90;;;;;;5071569;28;20219;-48
2023/03/17 06:34:48;;;;;;;13.97;7.90;;;4.80;99.90;;;;;;5073121;28;20681;-48
2023/03/17 06:37:15;;;;;;;9.37;8.47;;;4.90;99.90;;;;;;5068920;28;20452;-48
2023/03/17 06:39:42;;;;;;;13.43;8.10;;;5.00;99.90;;;;;;5068004;28;20679;-48
2023/03/17 06:42:10;;;;;;;7.50;6.80;;;5.00;99.90;;;;;;5069113;28;20639;-48
2023/03/17 06:44:38;;;;;;;7.27;6.43;;;5.20;99.90;;;;;;5072892;28;20211;-48
2023/03/17 06:47:05;;;;;;;6.60;6.00;;;5.50;99.90;;;;;;5072716;28;20208;-48
2023/03/17 06:49:33;;;;;;;8.03;5.90;;;5.70;99.90;;;;;;5073126;28;20204;-48
2023/03/17 06:52:00;;;;;;;9.87;7.27;;;5.90;99.90;;;;;;5071572;28;20311;-48
2023/03/17 06:54:27;;;;;;;9.27;7.07;;;6.00;99.90;;;;;;5072919;28;20223;-48
2023/03/17 06:56:55;;;;;;;12.43;7.47;;;6.10;99.90;;;;;;5063615;28;20660;-48
2023/03/17 06:59:23;;;;;;;15.73;10.80;;;6.20;99.90;;;;;;5072587;28;20547;-48
2023/03/17 07:01:51;;;;;;;21.33;11.77;;;6.30;99.90;;;;;;5072843;28;20232;-48
2023/03/17 07:04:18;;;;;;;16.53;11.30;;;6.50;99.90;;;;;;5072984;28;20235;-47
2023/03/17 07:06:45;;;;;;;15.73;9.93;;;6.80;99.90;;;;;;5072566;28;20244;-48
2023/03/17 07:09:14;;;;;;;12.07;8.60;;;7.30;99.90;;;;;;5072933;28;20205;-48
2023/03/17 07:11:41;;;;;;;12.80;7.87;;;7.90;99.90;;;;;;5072538;28;20708;-48
2023/03/17 07:14:09;;;;;;;9.10;7.17;;;8.20;99.90;;;;;;5070672;28;20225;-48
2023/03/17 07:16:37;;;;;;;8.47;6.10;;;8.60;99.90;;;;;;5072551;28;20268;-48
2023/03/17 07:19:06;;;;;;;6.03;4.80;;;8.90;99.90;;;;;;5071722;28;20221;-48
2023/03/17 07:21:33;;;;;;;12.33;4.90;;;9.20;99.90;;;;;;5069035;28;20228;-48
2023/03/17 07:24:00;;;;;;;3.20;2.90;;;9.70;99.90;;;;;;5072308;28;20218;-48
2023/03/17 07:26:27;;;;;;;4.10;2.33;;;10.00;99.90;;;;;;5072171;28;20201;-48
2023/03/17 07:28:54;;;;;;;2.57;2.27;;;10.10;99.90;;;;;;5071215;28;20197;-48
2023/03/17 07:31:22;;;;;;;3.83;3.20;;;10.30;99.90;;;;;;5071060;28;20802;-48
2023/03/17 07:33:50;;;;;;;3.30;3.03;;;10.00;99.90;;;;;;5072167;28;20227;-47
2023/03/17 07:36:18;;;;;;;5.23;4.23;;;9.90;99.90;;;;;;5072267;28;20210;-48
2023/03/17 07:38:45;;;;;;;5.13;4.73;;;10.40;99.90;;;;;;5072215;28;20256;-48
2023/03/17 07:41:12;;;;;;;6.43;3.57;;;10.70;99.90;;;;;;5071248;28;20292;-48
2023/03/17 07:43:40;;;;;;;8.93;4.47;;;10.90;99.90;;;;;;5067520;28;20217;-48
2023/03/17 07:46:07;;;;;;;4.57;4.17;;;11.40;99.90;;;;;;5071183;28;20203;-47
2023/03/17 07:48:36;;;;;;;8.83;5.00;;;11.30;99.90;;;;;;5069619;28;20207;-48
2023/03/17 07:51:05;;;;;;;5.13;4.83;;;11.10;99.90;;;;;;5070059;28;20308;-48
2023/03/17 07:53:32;;;;;;;4.67;4.37;;;11.40;99.90;;;;;;5070409;28;20718;-48
2023/03/17 07:55:59;;;;;;;8.23;5.27;;;12.00;99.90;;;;;;5063977;28;20607;-48
2023/03/17 07:58:25;;;;;;;7.50;5.50;;;12.40;99.90;;;;;;5070121;28;20204;-48
2023/03/17 08:00:53;;;;;;;10.47;5.47;;;12.10;99.90;;;;;;5072049;28;20285;-47
2023/03/17 08:03:20;;;;;;;3.77;3.57;;;11.80;99.90;;;;;;5069492;28;20383;-48
2023/03/17 08:05:52;;;;;;;3.93;3.60;;;11.50;99.90;;;;;;5068496;28;20227;-48
2023/03/17 08:08:20;;;;;;;4.40;4.10;;;12.10;99.90;;;;;;5066833;28;20291;-47
2023/03/17 08:10:48;;;;;;;6.70;4.40;;;12.50;99.90;;;;;;5063305;28;20249;-48
2023/03/17 08:13:15;;;;;;;6.30;3.53;;;12.90;99.90;;;;;;5066911;28;20242;-48
2023/03/17 08:15:42;;;;;;;5.57;3.73;;;13.40;99.90;;;;;;5070475;28;20254;-48
2023/03/17 08:18:09;;;;;;;5.07;4.13;;;13.70;99.90;;;;;;5070423;28;20364;-48
2023/03/17 08:20:36;;;;;;;4.60;4.10;;;13.80;99.90;;;;;;5068556;28;20301;-48
2023/03/17 08:23:04;;;;;;;5.33;4.00;;;13.90;99.90;;;;;;5069056;28;20235;-48
2023/03/17 08:25:32;;;;;;;6.90;4.40;;;14.30;99.90;;;;;;5069313;28;20774;-48
2023/03/17 08:27:59;;;;;;;5.20;4.27;;;14.00;99.90;;;;;;5070310;28;20260;-47
2023/03/17 08:30:27;;;;;;;8.03;4.77;;;14.20;99.90;;;;;;5070443;28;20576;-48
2023/03/17 08:32:58;;;;;;;3.63;3.33;;;14.80;99.90;;;;;;5070986;28;20200;-48
2023/03/17 08:35:26;;;;;;;3.20;2.90;;;15.00;99.90;;;;;;5071668;28;20668;-48
2023/03/17 08:37:56;;;;;;;3.50;3.30;;;15.40;99.90;;;;;;5071767;28;20289;-48
2023/03/17 08:40:23;;;;;;;4.43;4.17;;;15.30;99.90;;;;;;5070744;28;20197;-48
2023/03/17 08:42:51;;;;;;;5.50;5.00;;;15.30;99.90;;;;;;5061628;28;20217;-48
2023/03/17 08:45:18;;;;;;;4.60;4.30;;;15.30;99.90;;;;;;5071412;28;20213;-47
2023/03/17 08:47:46;;;;;;;6.73;4.23;;;15.60;99.90;;;;;;5071164;28;20201;-48
2023/03/17 08:50:18;;;;;;;5.70;5.10;;;15.90;99.90;;;;;;5071406;28;20663;-48
2023/03/17 08:52:45;;;;;;;5.13;4.80;;;16.10;99.90;;;;;;5078900;22;20221;-47
2023/03/17 08:55:14;;;;;;;5.67;5.20;;;16.60;99.90;;;;;;5045213;28;20198;-46
2023/03/17 08:57:41;;;;;;;5.30;4.80;;;16.00;99.90;;;;;;5049152;28;20201;-47
2023/03/17 09:00:11;;;;;;;6.90;5.27;;;16.00;99.90;;;;;;5042343;28;20205;-47
2023/03/17 09:02:39;;;;;;;6.07;5.57;;;15.80;99.90;;;;;;5051466;28;20638;-47
2023/03/17 09:05:07;;;;;;;9.80;5.60;;;15.90;99.90;;;;;;5051504;28;20279;-46
2023/03/17 09:07:34;;;;;;;5.50;5.07;;;15.20;99.90;;;;;;5051315;28;20689;-47
2023/03/17 09:10:02;;;;;;;5.53;5.03;;;15.80;99.90;;;;;;5051738;28;20204;-47
2023/03/17 09:12:29;;;;;;;5.17;4.97;;;16.00;99.90;;;;;;5051627;28;20225;-48
2023/03/17 09:14:57;;;;;;;5.53;4.97;;;15.10;99.90;;;;;;5039510;28;20750;-47
2023/03/17 09:17:26;;;;;;;5.20;4.63;;;15.00;99.90;;;;;;5031545;28;20698;-47
2023/03/17 09:19:53;;;;;;;5.37;4.97;;;14.90;99.90;;;;;;5031493;28;20207;-48
2023/03/17 09:22:20;;;;;;;8.73;5.33;;;14.70;99.90;;;;;;5031442;28;20276;-48
2023/03/17 09:24:47;;;;;;;8.63;5.40;;;15.20;99.90;;;;;;5031660;28;20226;-47
2023/03/17 09:27:14;;;;;;;5.83;5.37;;;15.20;99.90;;;;;;5031185;28;20206;-47
2023/03/17 09:29:42;;;;;;;6.60;5.50;;;16.10;99.90;;;;;;5031644;28;20202;-47
2023/03/17 09:32:09;;;;;;;7.00;6.17;;;17.00;99.90;;;;;;5041797;28;20300;-48
2023/03/17 09:34:37;;;;;;;6.03;5.63;;;18.10;99.90;;;;;;5039002;28;20252;-47
2023/03/17 09:37:04;;;;;;;5.80;5.40;;;18.10;99.90;;;;;;5042644;28;20228;-47
2023/03/17 09:39:32;;;;;;;5.80;5.30;;;17.80;99.90;;;;;;5051132;28;20729;-47
2023/03/17 09:42:20;;;;;;;6.63;5.53;;;17.80;99.90;;;;;;5043131;28;20222;-47
2023/03/17 09:45:01;;;;;;;5.87;5.37;;;18.10;99.90;;;;;;5043541;28;20267;-46
2023/03/17 09:48:01;;;;;;;5.83;5.40;;;17.20;99.90;;;;;;5032321;28;20199;-47
2023/03/17 09:50:37;;;;;;;5.53;5.23;;;17.40;99.90;;;;;;5004094;28;20198;-47
2023/03/17 09:53:05;;;;;;;5.70;5.33;;;17.80;99.90;;;;;;5041797;28;20279;-47
2023/03/17 09:55:35;;;;;;;5.83;5.40;;;18.20;99.90;;;;;;5033406;28;20610;-46
2023/03/17 09:58:03;;;;;;;7.27;5.63;;;18.40;99.40;;;;;;5041827;28;20261;-48
2023/03/17 10:00:31;;;;;;;6.77;6.23;;;17.70;99.20;;;;;;5035596;28;20198;-47
2023/03/17 10:03:00;;;;;;;6.73;5.73;;;18.00;99.80;;;;;;5035194;28;20271;-47
2023/03/17 10:05:31;;;;;;;6.00;5.57;;;18.20;99.50;;;;;;5041139;28;20229;-46
2023/03/17 10:08:05;;;;;;;5.73;5.33;;;18.20;99.00;;;;;;5036416;28;20567;-48
2023/03/17 10:10:41;;;;;;;6.43;5.93;;;18.10;99.90;;;;;;5046100;28;20682;-47
2023/03/17 10:13:19;;;;;;;8.87;6.00;;;18.00;99.00;;;;;;5037740;28;20308;-47
2023/03/17 10:15:50;;;;;;;6.50;5.90;;;18.00;98.80;;;;;;5035978;28;20195;-47
2023/03/17 10:18:18;;;;;;;5.97;5.47;;;17.30;99.90;;;;;;5034265;28;20676;-47
2023/03/17 10:20:52;;;;;;;6.30;5.70;;;16.40;99.80;;;;;;5032853;28;20587;-46
2023/03/17 10:23:23;;;;;;;6.13;5.73;;;16.20;99.90;;;;;;5042003;28;20199;-47
2023/03/17 10:25:50;;;;;;;6.50;6.00;;;16.40;99.90;;;;;;5053488;28;20256;-46
2023/03/17 10:28:28;;;;;;;6.03;5.73;;;16.40;99.90;;;;;;5054252;28;20265;-47
2023/03/17 10:31:01;;;;;;;6.27;5.77;;;16.40;99.90;;;;;;5054340;28;20288;-47
2023/03/17 10:33:29;;;;;;;7.53;6.83;;;16.30;99.90;;;;;;5054531;28;20240;-47
2023/03/17 10:36:07;;;;;;;6.50;5.90;;;16.20;99.90;;;;;;5040996;28;20198;-46
2023/03/17 10:38:35;;;;;;;7.00;6.30;;;16.00;99.90;;;;;;5039636;28;20229;-46
2023/03/17 10:41:11;;;;;;;7.43;6.57;;;16.20;99.90;;;;;;5041493;28;20203;-46
2023/03/17 10:43:46;;;;;;;6.20;5.70;;;16.30;99.90;;;;;;5033880;28;20195;-46
2023/03/17 10:46:20;;;;;;;6.17;5.37;;;16.20;99.90;;;;;;5026789;28;20272;-47
2023/03/17 10:48:52;;;;;;;5.93;5.43;;;16.40;99.90;;;;;;5038471;28;20250;-48
2023/03/17 10:51:30;;;;;;;7.07;6.40;;;16.80;99.90;;;;;;5027366;28;20230;-47
2023/03/17 10:54:00;;;;;;;6.30;5.80;;;17.40;99.70;;;;;;5032426;28;20280;-48
2023/03/17 10:56:32;;;;;;;6.83;6.20;;;17.80;99.90;;;;;;5042828;28;20194;-46
2023/03/17 10:59:06;;;;;;;7.43;6.83;;;17.60;99.60;;;;;;5038693;28;20198;-47
2023/03/17 11:01:38;;;;;;;6.63;6.03;;;17.50;99.70;;;;;;5038424;28;20757;-47
2023/03/17 11:04:27;;;;;;;8.50;7.83;;;17.80;99.90;;;;;;5035959;28;20201;-47
2023/03/17 11:06:56;;;;;;;7.23;6.73;;;17.40;99.40;;;;;;5037430;28;20665;-47
2023/03/17 11:09:25;;;;;;;6.97;6.40;;;17.60;99.90;;;;;;5045046;28;20618;-48
2023/03/17 11:12:02;;;;;;;7.60;7.00;;;17.40;99.70;;;;;;5033938;28;20218;-47
2023/03/17 11:14:29;;;;;;;7.03;6.47;;;17.10;99.00;;;;;;5032349;28;20205;-47
2023/03/17 11:16:59;;;;;;;7.23;6.73;;;17.10;98.60;;;;;;5033277;28;20204;-46
2023/03/17 11:19:35;;;;;;;6.50;6.00;;;16.80;99.90;;;;;;5033275;28;20202;-48
2023/03/17 11:22:10;;;;;;;6.30;5.80;;;16.60;99.90;;;;;;5040790;28;20218;-48
2023/03/17 11:24:44;;;;;;;7.93;7.33;;;16.30;99.90;;;;;;5051663;28;20193;-47
2023/03/17 11:27:20;;;;;;;7.33;6.60;;;16.30;99.20;;;;;;5053497;28;20216;-47
2023/03/17 11:30:02;;;;;;;6.93;6.33;;;16.50;99.80;;;;;;5036042;28;20344;-47
2023/03/17 11:32:35;;;;;;;7.93;5.83;;;16.50;98.40;;;;;;5029919;28;20422;-46
2023/03/17 11:35:35;;;;;;;6.87;6.27;;;16.40;98.70;;;;;;5033616;28;20226;-47
2023/03/17 11:38:24;;;;;;;10.17;6.87;;;16.50;98.60;;;;;;5032641;28;20573;-47
2023/03/17 11:41:28;;;;;;;6.30;5.50;;;16.40;97.00;;;;;;5031373;28;20208;-46
2023/03/17 11:44:21;;;;;;;6.73;6.13;;;16.30;96.90;;;;;;5031640;28;20228;-46
2023/03/17 11:46:54;;;;;;;7.10;5.63;;;16.10;97.50;;;;;;5028780;28;20770;-48
2023/03/17 11:49:26;;;;;;;6.83;6.17;;;15.90;98.40;;;;;;5030987;28;20202;-47
2023/03/17 11:52:03;;;;;;;7.32;6.63;;;15.80;98.20;;;;;;5042057;28;20455;-48
2023/03/17 11:54:43;;;;;;;6.00;5.50;;;16.10;98.30;;;;;;5039402;28;20661;-47
2023/03/17 11:57:14;;;;;;;7.33;6.53;;;16.30;96.40;;;;;;5033681;28;20190;-47
2023/03/17 11:59:47;;;;;;;6.83;5.33;;;16.20;97.30;;;;;;5032529;28;20203;-46
2023/03/17 12:02:22;;;;;;;7.30;5.00;;;16.40;95.70;;;;;;5028591;28;20218;-47
2023/03/17 12:04:56;;;;;;;5.97;4.90;;;16.50;95.30;;;;;;5028340;28;20202;-46
2023/03/17 12:07:25;;;;;;;7.13;4.77;;;16.40;94.60;;;;;;5028552;28;20203;-48
2023/03/17 12:10:04;;;;;;;5.77;5.23;;;16.30;94.10;;;;;;5025437;28;20639;-47
2023/03/17 12:12:36;;;;;;;7.00;4.83;;;16.20;95.40;;;;;;5034866;28;20272;-46
2023/03/17 12:15:07;;;;;;;7.63;5.20;;;16.20;96.40;;;;;;5025838;28;20203;-47
2023/03/17 12:17:39;;;;;;;5.37;4.87;;;16.10;95.60;;;;;;5031408;28;20207;-47
2023/03/17 12:20:16;;;;;;;5.47;4.97;;;16.30;94.90;;;;;;5034969;28;20207;-46
2023/03/17 12:22:47;;;;;;;6.50;4.63;;;16.10;94.50;;;;;;5030816;28;20261;-48
2023/03/17 12:25:21;;;;;;;4.80;4.40;;;16.10;94.00;;;;;;5031896;28;20268;-46
2023/03/17 12:27:59;;;;;;;5.30;4.20;;;16.20;94.20;;;;;;5033278;28;20203;-45
2023/03/17 12:30:31;;;;;;;4.97;4.57;;;16.20;93.70;;;;;;5035923;28;20711;-46
2023/03/17 12:33:17;;;;;;;5.50;5.00;;;16.00;94.00;;;;;;5029667;28;20218;-47
2023/03/17 12:35:44;;;;;;;11.53;5.30;;;16.10;94.20;;;;;;5039168;28;20248;-46
2023/03/17 12:38:16;;;;;;;6.63;4.57;;;16.30;94.10;;;;;;5037193;28;20715;-46
2023/03/17 12:41:20;;;;;;;5.50;4.43;;;16.40;94.80;;;;;;5028791;28;20210;-47
2023/03/17 12:43:59;;;;;;;6.50;4.87;;;16.10;95.40;;;;;;5030954;28;20557;-45
2023/03/17 12:46:52;;;;;;;5.50;5.00;;;15.80;94.10;;;;;;5029041;28;20279;-46
2023/03/17 12:49:56;;;;;;;7.90;5.70;;;15.80;95.00;;;;;;5031462;28;20202;-47
2023/03/17 12:52:36;;;;;;;9.07;5.97;;;15.90;94.60;;;;;;4964899;28;20240;-46
2023/03/17 12:55:07;;;;;;;6.93;4.80;;;15.90;94.90;;;;;;4963339;28;20261;-48
2023/03/17 12:57:40;;;;;;;6.63;5.50;;;15.80;94.80;;;;;;5002786;28;20199;-46
2023/03/17 13:00:19;;;;;;;9.17;5.60;;;15.90;95.10;;;;;;5032973;28;20277;-49
2023/03/17 13:02:53;;;;;;;7.23;4.93;;;16.10;95.20;;;;;;5038536;28;20222;-49
2023/03/17 13:05:32;;;;;;;4.87;4.33;;;16.20;94.50;;;;;;5032401;28;20195;-48
2023/03/17 13:08:02;;;;;;;5.47;4.50;;;15.90;96.30;;;;;;5034255;28;20271;-46